createdAt,value
2019-01-15T00:01:45.595Z,1.65
2019-01-15T00:04:17.827Z,2.45
2019-01-15T00:06:47.907Z,1.80
2019-01-15T00:09:18.091Z,1.80
2019-01-15T00:11:48.239Z,1.95
2019-01-15T00:14:18.335Z,1.80
2019-01-15T00:16:50.619Z,2.55
2019-01-15T00:19:22.667Z,2.25
2019-01-15T00:21:52.972Z,1.72
2019-01-15T00:24:23.984Z,1.70
2019-01-15T00:26:54.015Z,2.30
2019-01-15T00:29:25.208Z,1.52
2019-01-15T00:31:55.351Z,2.37
2019-01-15T00:34:34.424Z,2.30
2019-01-15T00:37:12.307Z,4.30
2019-01-15T00:39:46.258Z,2.08
2019-01-15T00:42:22.096Z,2.05
2019-01-15T00:44:52.164Z,1.82
2019-01-15T00:47:22.264Z,3.67
2019-01-15T00:49:54.308Z,2.10
2019-01-15T00:52:25.399Z,2.20
2019-01-15T00:54:57.425Z,2.05
2019-01-15T00:57:27.787Z,2.72
2019-01-15T01:00:00.908Z,2.15
2019-01-15T01:02:31.020Z,3.30
2019-01-15T01:05:02.083Z,3.10
2019-01-15T01:07:34.148Z,2.95
2019-01-15T01:10:06.899Z,2.92
2019-01-15T01:12:36.983Z,2.33
2019-01-15T01:15:11.692Z,2.22
2019-01-15T01:17:42.006Z,2.98
2019-01-15T01:20:17.122Z,2.55
2019-01-15T01:22:47.201Z,3.67
2019-01-15T01:25:17.288Z,2.75
2019-01-15T01:27:50.476Z,2.37
2019-01-15T01:30:22.259Z,3.30
2019-01-15T01:32:52.504Z,2.60
2019-01-15T01:35:30.264Z,2.42
2019-01-15T01:38:11.544Z,2.30
2019-01-15T01:40:52.849Z,3.17
2019-01-15T01:43:30.056Z,2.50
2019-01-15T01:46:20.744Z,2.58
2019-01-15T01:49:10.119Z,3.05
2019-01-15T01:51:59.844Z,2.55
2019-01-15T01:54:30.860Z,3.80
2019-01-15T01:57:02.041Z,2.52
2019-01-15T01:59:32.112Z,2.72
2019-01-15T02:02:02.219Z,2.92
2019-01-15T02:04:39.011Z,2.55
2019-01-15T02:07:17.843Z,2.90
2019-01-15T02:09:49.905Z,2.52
2019-01-15T02:12:24.032Z,2.27
2019-01-15T02:14:56.808Z,2.92
2019-01-15T02:17:27.850Z,4.08
2019-01-15T02:20:09.731Z,2.85
2019-01-15T02:22:42.969Z,2.70
2019-01-15T02:25:15.092Z,3.02
2019-01-15T02:27:47.800Z,2.52
2019-01-15T02:30:22.125Z,2.62
2019-01-15T02:32:52.204Z,2.87
2019-01-15T02:35:32.263Z,2.50
2019-01-15T02:38:02.336Z,2.15
2019-01-15T02:40:33.409Z,1.87
2019-01-15T02:43:05.536Z,3.08
2019-01-15T02:45:35.608Z,1.82
2019-01-15T02:48:14.217Z,1.82
2019-01-15T02:50:44.311Z,1.52
2019-01-15T02:53:14.373Z,2.20
2019-01-15T02:55:44.449Z,1.90
2019-01-15T02:58:14.708Z,2.55
2019-01-15T03:00:44.815Z,2.02
2019-01-15T03:03:14.910Z,2.77
2019-01-15T03:05:44.988Z,1.50
2019-01-15T03:08:17.063Z,2.33
2019-01-15T03:10:48.064Z,1.62
2019-01-15T03:13:18.141Z,1.55
2019-01-15T03:15:56.173Z,2.40
2019-01-15T03:18:27.199Z,1.98
2019-01-15T03:21:06.561Z,1.70
2019-01-15T03:23:46.706Z,2.45
2019-01-15T03:26:17.747Z,2.42
2019-01-15T03:28:48.779Z,2.50
2019-01-15T03:31:22.889Z,2.77
2019-01-15T03:33:53.922Z,2.25
2019-01-15T03:36:26.039Z,2.90
2019-01-15T03:38:56.117Z,2.42
2019-01-15T03:41:26.179Z,1.42
2019-01-15T03:43:58.193Z,2.65
2019-01-15T03:46:43.118Z,1.95
2019-01-15T03:49:13.208Z,2.35
2019-01-15T03:51:44.229Z,3.00
2019-01-15T03:54:14.298Z,2.40
2019-01-15T03:56:44.444Z,2.22
2019-01-15T03:59:23.496Z,2.25
2019-01-15T04:01:59.372Z,2.10
2019-01-15T04:04:29.436Z,1.92
2019-01-15T04:07:01.701Z,2.45
2019-01-15T04:09:31.831Z,2.60
2019-01-15T04:12:13.933Z,2.10
2019-01-15T04:14:44.025Z,2.45
2019-01-15T04:17:14.091Z,2.12
2019-01-15T04:19:51.873Z,2.65
2019-01-15T04:22:21.977Z,2.67
2019-01-15T04:24:53.052Z,2.22
2019-01-15T04:27:30.130Z,3.47
2019-01-15T04:30:19.405Z,3.33
2019-01-15T04:32:51.486Z,3.15
2019-01-15T04:35:34.687Z,1.95
2019-01-15T04:38:05.732Z,3.27
2019-01-15T04:40:35.808Z,2.80
2019-01-15T04:43:08.922Z,3.10
2019-01-15T04:45:39.961Z,2.95
2019-01-15T04:48:13.630Z,3.50
2019-01-15T04:50:45.660Z,3.47
2019-01-15T04:53:16.684Z,3.15
2019-01-15T04:55:49.413Z,2.60
2019-01-15T04:58:21.436Z,3.17
2019-01-15T05:00:52.452Z,2.62
2019-01-15T05:03:26.791Z,2.98
2019-01-15T05:06:04.216Z,2.95
2019-01-15T05:08:34.316Z,3.00
2019-01-15T05:11:04.564Z,1.95
2019-01-15T05:13:34.636Z,2.72
2019-01-15T05:16:16.066Z,2.27
2019-01-15T05:18:47.148Z,2.65
2019-01-15T05:21:17.271Z,3.08
2019-01-15T05:23:48.732Z,2.20
2019-01-15T05:26:19.748Z,3.08
2019-01-15T05:28:53.548Z,3.15
2019-01-15T05:31:31.648Z,2.75
2019-01-15T05:34:02.592Z,2.77
2019-01-15T05:36:34.580Z,2.98
2019-01-15T05:39:08.029Z,2.67
2019-01-15T05:41:38.084Z,3.45
2019-01-15T05:44:10.151Z,3.25
2019-01-15T05:46:40.345Z,3.45
2019-01-15T05:49:19.708Z,3.25
2019-01-15T05:51:51.944Z,3.10
2019-01-15T05:54:29.976Z,3.30
2019-01-15T05:57:00.076Z,2.55
2019-01-15T05:59:33.180Z,2.58
2019-01-15T06:02:03.256Z,2.83
2019-01-15T06:04:34.380Z,3.55
2019-01-15T06:07:05.684Z,2.67
2019-01-15T06:09:35.780Z,2.80
2019-01-15T06:12:07.756Z,4.03
2019-01-15T06:14:39.832Z,3.33
2019-01-15T06:17:13.017Z,3.60
2019-01-15T06:19:43.094Z,3.02
2019-01-15T06:22:13.192Z,4.90
2019-01-15T06:24:44.500Z,3.20
2019-01-15T06:27:18.256Z,3.17
2019-01-15T06:29:48.388Z,3.60
2019-01-15T06:32:29.292Z,3.77
2019-01-15T06:34:59.397Z,4.75
2019-01-15T06:37:32.102Z,19.73
2019-01-15T06:40:10.260Z,15.03
2019-01-15T06:42:41.000Z,3.85
2019-01-15T06:45:26.092Z,5.87
2019-01-15T06:48:04.505Z,4.42
2019-01-15T06:50:34.620Z,5.60
2019-01-15T06:53:06.598Z,6.33
2019-01-15T06:55:36.693Z,5.40
2019-01-15T06:58:12.632Z,4.47
2019-01-15T07:00:55.788Z,4.62
2019-01-15T07:03:29.106Z,3.83
2019-01-15T07:06:03.037Z,3.90
2019-01-15T07:08:40.904Z,3.92
2019-01-15T07:11:16.904Z,3.95
2019-01-15T07:13:48.155Z,3.87
2019-01-15T07:16:18.396Z,4.20
2019-01-15T07:18:58.252Z,3.65
2019-01-15T07:21:31.536Z,3.77
2019-01-15T07:24:09.549Z,3.02
2019-01-15T07:26:51.673Z,3.42
2019-01-15T07:29:21.804Z,3.72
2019-01-15T07:31:53.030Z,4.60
2019-01-15T07:34:24.068Z,3.70
2019-01-15T07:36:57.172Z,4.40
2019-01-15T07:39:27.237Z,3.45
2019-01-15T07:41:57.377Z,3.80
2019-01-15T07:44:27.524Z,4.85
2019-01-15T07:46:59.572Z,3.77
2019-01-15T07:49:29.640Z,4.33
2019-01-15T07:51:59.798Z,4.37
2019-01-15T07:54:30.744Z,3.92
2019-01-15T07:57:01.780Z,4.95
2019-01-15T07:59:32.932Z,4.58
2019-01-15T08:02:03.144Z,4.22
2019-01-15T08:04:33.213Z,3.22
2019-01-15T08:07:04.421Z,5.17
2019-01-15T08:09:53.344Z,5.08
2019-01-15T08:12:25.360Z,8.03
2019-01-15T08:14:55.436Z,5.10
2019-01-15T08:17:25.541Z,3.65
2019-01-15T08:19:58.730Z,3.30
2019-01-15T08:22:31.445Z,3.67
2019-01-15T08:25:01.616Z,3.80
2019-01-15T08:27:32.561Z,3.60
2019-01-15T08:30:02.729Z,4.03
2019-01-15T08:32:32.804Z,3.80
2019-01-15T08:35:04.878Z,4.17
2019-01-15T08:37:40.759Z,3.58
2019-01-15T08:40:15.720Z,3.85
2019-01-15T08:42:51.901Z,3.17
2019-01-15T08:45:28.012Z,3.25
2019-01-15T08:47:59.803Z,4.42
2019-01-15T08:50:33.762Z,3.70
2019-01-15T08:53:03.934Z,3.08
2019-01-15T08:55:34.015Z,3.98
2019-01-15T08:58:09.288Z,4.58
2019-01-15T09:00:45.033Z,3.95
2019-01-15T09:03:21.277Z,3.20
2019-01-15T09:05:53.329Z,3.02
2019-01-15T09:08:25.396Z,3.10
2019-01-15T09:10:55.472Z,3.35
2019-01-15T09:13:25.545Z,3.77
2019-01-15T09:16:01.737Z,3.65
2019-01-15T09:18:32.713Z,4.10
2019-01-15T09:21:02.771Z,3.83
2019-01-15T09:23:32.845Z,3.83
2019-01-15T09:26:08.712Z,3.87
2019-01-15T09:28:45.613Z,3.60
2019-01-15T09:31:23.502Z,3.60
2019-01-15T09:33:54.541Z,4.62
2019-01-15T09:36:24.614Z,4.95
2019-01-15T09:38:56.117Z,3.02
2019-01-15T09:41:30.149Z,3.95
2019-01-15T09:44:03.161Z,4.20
2019-01-15T09:46:35.181Z,5.22
2019-01-15T09:49:09.698Z,5.25
2019-01-15T09:51:39.764Z,4.87
2019-01-15T09:54:22.844Z,4.10
2019-01-15T09:56:59.085Z,3.85
2019-01-15T09:59:29.185Z,3.77
2019-01-15T10:02:01.171Z,4.15
2019-01-15T10:04:32.161Z,3.90
2019-01-15T10:07:04.365Z,3.80
2019-01-15T10:09:35.430Z,4.67
2019-01-15T10:12:05.945Z,3.90
2019-01-15T10:14:41.180Z,3.50
2019-01-15T10:17:18.061Z,3.90
2019-01-15T10:19:49.017Z,4.10
2019-01-15T10:22:20.145Z,3.80
2019-01-15T10:24:51.073Z,3.65
2019-01-15T10:27:22.589Z,4.80
2019-01-15T10:29:59.102Z,4.40
2019-01-15T10:32:39.237Z,4.45
2019-01-15T10:35:17.061Z,4.28
2019-01-15T10:37:49.044Z,5.17
2019-01-15T10:40:19.109Z,4.20
2019-01-15T10:42:49.194Z,4.53
2019-01-15T10:45:25.409Z,3.90
2019-01-15T10:48:03.934Z,5.80
2019-01-15T10:50:42.859Z,5.15
2019-01-15T10:53:18.973Z,5.53
2019-01-15T10:55:49.109Z,5.17
2019-01-15T10:58:23.538Z,4.42
2019-01-15T11:00:55.630Z,6.20
2019-01-15T11:03:31.389Z,5.72
2019-01-15T11:06:01.486Z,7.25
2019-01-15T11:08:31.565Z,6.20
2019-01-15T11:11:01.638Z,5.70
2019-01-15T11:13:31.717Z,5.70
2019-01-15T11:16:05.781Z,4.60
2019-01-15T11:18:35.898Z,7.28
2019-01-15T11:21:06.099Z,5.97
2019-01-15T11:23:43.081Z,6.42
2019-01-15T11:26:15.033Z,5.22
2019-01-15T11:28:45.117Z,5.42
2019-01-15T11:31:15.198Z,5.83
2019-01-15T11:33:45.277Z,6.25
2019-01-15T11:36:20.565Z,5.85
2019-01-15T11:38:51.553Z,6.45
2019-01-15T11:41:21.645Z,6.87
2019-01-15T11:43:51.725Z,5.50
2019-01-15T11:46:27.785Z,5.35
2019-01-15T11:48:57.853Z,4.45
2019-01-15T11:51:37.061Z,5.60
2019-01-15T11:54:07.157Z,7.92
2019-01-15T11:56:46.161Z,5.12
2019-01-15T11:59:18.813Z,5.67
2019-01-15T12:01:52.073Z,6.00
2019-01-15T12:04:30.034Z,5.05
2019-01-15T12:07:22.457Z,5.50
2019-01-15T12:10:02.193Z,5.05
2019-01-15T12:12:45.636Z,4.92
2019-01-15T12:15:26.313Z,4.70
2019-01-15T12:17:58.995Z,4.45
2019-01-15T12:20:31.733Z,4.28
2019-01-15T12:23:21.405Z,4.85
2019-01-15T12:25:58.928Z,4.00
2019-01-15T12:28:46.414Z,4.90
2019-01-15T12:31:45.804Z,5.58
2019-01-15T12:34:26.134Z,3.87
2019-01-15T12:37:20.757Z,3.20
2019-01-15T12:40:07.486Z,3.87
2019-01-15T12:42:44.081Z,4.03
2019-01-15T12:45:38.417Z,4.10
2019-01-15T12:48:16.158Z,3.47
2019-01-15T12:51:07.867Z,3.67
2019-01-15T12:53:57.690Z,3.83
2019-01-15T12:56:42.254Z,3.30
2019-01-15T12:59:41.274Z,3.37
2019-01-15T13:02:23.238Z,4.70
2019-01-15T13:05:18.260Z,4.08
2019-01-15T13:07:58.502Z,4.50
2019-01-15T13:10:39.662Z,3.50
2019-01-15T13:13:27.741Z,3.80
2019-01-15T13:16:08.606Z,3.47
2019-01-15T13:18:53.774Z,3.80
2019-01-15T13:21:28.206Z,4.35
2019-01-15T13:24:27.373Z,3.75
2019-01-15T13:27:10.970Z,3.60
2019-01-15T13:29:42.782Z,4.35
2019-01-15T13:32:23.350Z,4.17
2019-01-15T13:35:06.760Z,4.00
2019-01-15T13:37:44.453Z,4.28
2019-01-15T13:40:17.142Z,3.10
2019-01-15T13:43:00.854Z,4.37
2019-01-15T13:45:41.564Z,3.20
2019-01-15T13:48:27.074Z,3.55
2019-01-15T13:51:11.121Z,4.08
2019-01-15T13:53:51.538Z,4.42
2019-01-15T13:56:40.870Z,4.95
2019-01-15T13:59:12.595Z,7.12
2019-01-15T14:01:44.306Z,4.55
2019-01-15T14:04:33.077Z,4.12
2019-01-15T14:07:06.774Z,5.20
2019-01-15T14:09:40.547Z,4.72
2019-01-15T14:12:14.182Z,4.53
2019-01-15T14:14:46.094Z,4.85
2019-01-15T14:17:33.673Z,4.92
2019-01-15T14:20:13.766Z,4.28
2019-01-15T14:22:45.509Z,4.78
2019-01-15T14:25:19.940Z,4.83
2019-01-15T14:27:57.218Z,5.05
2019-01-15T14:30:30.799Z,4.97
2019-01-15T14:33:03.520Z,5.30
2019-01-15T14:35:38.826Z,6.08
2019-01-15T14:38:26.398Z,5.47
2019-01-15T14:41:07.352Z,5.22
2019-01-15T14:43:55.114Z,5.20
2019-01-15T14:46:30.206Z,4.10
2019-01-15T14:49:14.594Z,5.62
2019-01-15T14:51:58.234Z,5.25
2019-01-15T14:54:30.042Z,5.72
2019-01-15T14:57:07.730Z,5.97
2019-01-15T14:59:44.518Z,5.15
2019-01-15T15:02:23.363Z,4.62
2019-01-15T15:05:00.998Z,5.20
2019-01-15T15:07:32.711Z,5.15
2019-01-15T15:10:19.482Z,5.17
2019-01-15T15:12:59.756Z,5.05
2019-01-15T15:15:38.662Z,5.65
2019-01-15T15:18:10.374Z,4.20
2019-01-15T15:20:59.374Z,6.05
2019-01-15T15:23:33.749Z,4.50
2019-01-15T15:26:22.727Z,4.90
2019-01-15T15:28:54.435Z,4.47
2019-01-15T15:31:50.766Z,5.33
2019-01-15T15:34:22.550Z,5.00
2019-01-15T15:37:06.086Z,4.25
2019-01-15T15:39:43.226Z,5.33
2019-01-15T15:42:33.634Z,5.08
2019-01-15T15:45:10.810Z,5.37
2019-01-15T15:47:48.235Z,5.80
2019-01-15T15:50:37.531Z,5.05
2019-01-15T15:53:15.179Z,4.97
2019-01-15T15:55:53.547Z,5.25
2019-01-15T15:58:35.286Z,4.47
2019-01-15T16:01:23.010Z,4.78
2019-01-15T16:04:00.194Z,4.30
2019-01-15T16:06:48.026Z,5.30
2019-01-15T16:09:31.163Z,5.35
2019-01-15T16:12:19.024Z,5.30
2019-01-15T16:15:08.776Z,4.60
2019-01-15T16:17:45.454Z,5.33
2019-01-15T16:20:32.274Z,5.33
2019-01-15T16:23:05.914Z,5.17
2019-01-15T16:25:48.386Z,3.72
2019-01-15T16:28:25.879Z,6.17
2019-01-15T16:30:58.161Z,6.12
2019-01-15T16:33:46.984Z,6.00
2019-01-15T16:36:30.922Z,5.50
2019-01-15T16:39:15.646Z,5.17
2019-01-15T16:41:51.979Z,4.95
2019-01-15T16:44:34.426Z,5.05
2019-01-15T16:47:27.708Z,5.20
2019-01-15T16:50:15.770Z,5.50
2019-01-15T16:52:50.134Z,5.00
2019-01-15T16:55:44.054Z,5.85
2019-01-15T16:58:21.340Z,5.70
2019-01-15T17:01:07.034Z,4.92
2019-01-15T17:03:47.978Z,4.90
2019-01-15T17:06:23.720Z,5.40
2019-01-15T17:09:01.279Z,5.33
2019-01-15T17:11:48.950Z,4.97
2019-01-15T17:14:36.456Z,5.33
2019-01-15T17:17:09.243Z,4.67
2019-01-15T17:19:40.979Z,5.47
2019-01-15T17:22:22.067Z,4.70
2019-01-15T17:24:57.430Z,5.50
2019-01-15T17:27:49.352Z,5.87
2019-01-15T17:30:32.398Z,5.15
2019-01-15T17:33:18.828Z,4.28
2019-01-15T17:35:53.970Z,4.12
2019-01-15T17:38:32.367Z,5.10
2019-01-15T17:41:28.787Z,4.90
2019-01-15T17:44:02.406Z,6.12
2019-01-15T17:46:49.967Z,6.12
2019-01-15T17:49:43.093Z,4.50
2019-01-15T17:52:14.803Z,5.10
2019-01-15T17:55:05.187Z,5.03
2019-01-15T17:57:38.931Z,5.90
2019-01-15T18:00:20.103Z,5.47
2019-01-15T18:03:03.130Z,5.90
2019-01-15T18:05:44.766Z,4.20
2019-01-15T18:08:16.475Z,5.15
2019-01-15T18:10:50.979Z,8.88
2019-01-15T18:13:38.623Z,7.37
2019-01-15T18:16:26.379Z,9.00
2019-01-15T18:18:58.362Z,7.90
2019-01-15T18:21:48.947Z,8.40
2019-01-15T18:24:26.645Z,7.00
2019-01-15T18:26:58.382Z,6.67
2019-01-15T18:29:30.103Z,6.25
2019-01-15T18:32:18.183Z,5.87
2019-01-15T18:34:58.893Z,6.97
2019-01-15T18:37:31.582Z,7.10
2019-01-15T18:40:21.551Z,7.15
2019-01-15T18:42:56.060Z,5.62
2019-01-15T18:45:40.711Z,7.22
2019-01-15T18:48:19.198Z,7.92
2019-01-15T18:50:53.667Z,6.10
2019-01-15T18:53:41.591Z,6.50
2019-01-15T18:56:29.559Z,7.28
2019-01-15T18:59:19.815Z,7.42
2019-01-15T19:01:57.474Z,6.65
2019-01-15T19:04:44.010Z,6.58
2019-01-15T19:07:28.019Z,6.65
2019-01-15T19:10:02.949Z,6.90
2019-01-15T19:12:46.635Z,6.97
2019-01-15T19:15:35.499Z,7.80
2019-01-15T19:18:10.902Z,6.70
2019-01-15T19:20:57.338Z,6.42
2019-01-15T19:23:47.850Z,6.42
2019-01-15T19:26:19.604Z,7.08
2019-01-15T19:28:51.371Z,7.50
2019-01-15T19:31:30.343Z,6.25
2019-01-15T19:34:18.398Z,6.22
2019-01-15T19:36:52.826Z,6.78
2019-01-15T19:39:28.535Z,7.25
2019-01-15T19:42:09.187Z,6.83
2019-01-15T19:44:54.031Z,7.75
2019-01-15T19:47:41.876Z,6.60
2019-01-15T19:50:29.015Z,8.00
2019-01-15T19:53:16.779Z,6.00
2019-01-15T19:55:57.343Z,8.00
2019-01-15T19:58:47.110Z,6.87
2019-01-15T20:01:30.303Z,6.67
2019-01-15T20:04:08.795Z,7.90
2019-01-15T20:07:03.991Z,6.33
2019-01-15T20:09:41.451Z,7.03
2019-01-15T20:12:28.336Z,7.15
2019-01-15T20:15:05.971Z,7.03
2019-01-15T20:17:40.475Z,8.10
2019-01-15T20:20:18.031Z,7.03
2019-01-15T20:22:57.475Z,7.28
2019-01-15T20:25:39.762Z,5.78
2019-01-15T20:28:14.843Z,6.30
2019-01-15T20:30:47.470Z,6.75
2019-01-15T20:33:24.951Z,6.10
2019-01-15T20:35:59.883Z,7.15
2019-01-15T20:38:32.600Z,6.62
2019-01-15T20:41:16.528Z,6.28
2019-01-15T20:44:00.486Z,6.47
2019-01-15T20:46:32.259Z,7.30
2019-01-15T20:49:06.952Z,6.75
2019-01-15T20:51:44.687Z,5.92
2019-01-15T20:54:40.747Z,7.00
2019-01-15T20:57:28.855Z,6.12
2019-01-15T21:00:15.631Z,5.53
2019-01-15T21:03:01.087Z,5.78
2019-01-15T21:05:35.623Z,5.87
2019-01-15T21:08:15.626Z,5.62
2019-01-15T21:10:56.434Z,7.25
2019-01-15T21:13:35.600Z,6.40
2019-01-15T21:16:10.784Z,5.78
2019-01-15T21:19:06.387Z,6.42
2019-01-15T21:21:58.771Z,6.97
2019-01-15T21:24:36.427Z,5.45
2019-01-15T21:27:09.129Z,5.70
2019-01-15T21:29:41.955Z,5.97
2019-01-15T21:32:36.753Z,6.05
2019-01-15T21:35:26.048Z,7.25
2019-01-15T21:38:21.005Z,5.08
2019-01-15T21:40:52.711Z,6.55
2019-01-15T21:43:29.880Z,7.35
2019-01-15T21:46:21.583Z,5.42
2019-01-15T21:49:09.566Z,7.33
2019-01-15T21:51:57.240Z,5.87
2019-01-15T21:54:40.991Z,5.92
2019-01-15T21:57:12.915Z,6.50
2019-01-15T21:59:54.278Z,5.92
2019-01-15T22:02:28.669Z,6.42
2019-01-15T22:05:00.543Z,5.80
2019-01-15T22:07:46.192Z,6.55
2019-01-15T22:10:29.951Z,5.42
2019-01-15T22:13:09.184Z,5.80
2019-01-15T22:15:42.939Z,6.22
2019-01-15T22:18:16.651Z,5.55
2019-01-15T22:21:04.539Z,6.03
2019-01-15T22:23:44.351Z,5.72
2019-01-15T22:26:17.007Z,6.50
2019-01-15T22:28:52.783Z,5.30
2019-01-15T22:31:24.503Z,7.00
2019-01-15T22:33:58.971Z,5.47
2019-01-15T22:36:51.643Z,5.85
2019-01-15T22:39:25.891Z,5.50
2019-01-15T22:42:05.771Z,5.72
2019-01-15T22:44:58.719Z,5.60
2019-01-15T22:47:31.649Z,6.17
2019-01-15T22:50:06.753Z,6.75
2019-01-15T22:52:39.960Z,5.92
2019-01-15T22:55:11.804Z,6.42
2019-01-15T22:57:55.630Z,6.22
2019-01-15T23:00:52.531Z,6.17
2019-01-15T23:03:33.083Z,6.15
2019-01-15T23:06:08.883Z,6.58
2019-01-15T23:08:50.275Z,5.92
2019-01-15T23:11:38.264Z,6.60
2019-01-15T23:14:26.904Z,6.33
2019-01-15T23:17:03.284Z,5.47
2019-01-15T23:19:52.424Z,5.30
2019-01-15T23:22:46.225Z,6.40
2019-01-15T23:25:26.603Z,7.25
2019-01-15T23:28:05.435Z,6.70
2019-01-15T23:30:37.243Z,6.15
2019-01-15T23:33:15.691Z,5.83
2019-01-15T23:36:07.135Z,5.60
2019-01-15T23:38:42.827Z,6.17
2019-01-15T23:41:20.628Z,5.75
2019-01-15T23:44:01.483Z,6.42
2019-01-15T23:46:37.700Z,6.85
2019-01-15T23:49:09.494Z,6.45
2019-01-15T23:51:53.240Z,7.25
2019-01-15T23:54:25.900Z,6.50
2019-01-15T23:56:57.796Z,6.58
2019-01-15T23:59:35.600Z,5.75
